Pagina principale
METAR-TAF:

METAR-TAF

Aeroporti :

Saint-Dizier, Francia

latitudine: 48-38N, longitudine: 004-54E, altezza: 139 m

Osservazione

Il bollettino è stato emesso 39 minuti fa, alle 19:30 UTC
Vento 3 kt da direzioni variabili
Temperature 29°C
Umidità 43%
Pressione 1019 hPa
Visibilità 10 km o più
nessuna nube inferiore a 1500 m e nessun cumulonembo

METAR: LFSI 251930Z AUTO VRB03KT CAVOK 29/15 Q1019

Ora: 22:09 (20:09 UTC)

Previsione

Il bollettino è stato emesso 6 ore e 9 minuti fa, alle 14:00 UTC
Previsione valida dal 25 alle 15 UTC al 26 alle 15 UTC
Vento 7 kt da ovest
Visibilità 10 km o più
nessuna nube inferiore a 1500 m e nessun cumulonembo

TAF: LFSI 251400Z 2515/2615 27007KT CAVOK

Osservazioni e previsioni meteorologiche di più di 4000 aeroporti (messaggi METAR e TAF).

Le stazioni disponibili sono rappresentate dai dischi gialli e rossi sulla carta.

Puntare il mouse per vedere il nome della stazione.

Clicca sopra per visualizzare le osservazioni e previsioni meteorologiche.

Per cambiare la mappa : fare clic sui pulsanti verdi con una croce nera per ingrandire, il pulsante verde con un trattino per diminuire, o sulla freccia verde per le mappe adiacenti.


METAR-TAF: